<?xml version="1.0" encoding="utf-8"?>
<gpx xmlns:xsi="http://www.w3.org/2001/XMLSchema-instance" xmlns:xsd="http://www.w3.org/2001/XMLSchema" version="1.1" creator="Shapelink.com" xmlns="http://www.topografix.com/GPX/1/1" xmlns:gpxtpx="http://www.garmin.com/xmlschemas/TrackPointExtension/v1">
  <metadata>
    <name>Cycling 14.32 km, 2020-06-11</name>
    <desc></desc>
    <author><name>Marian Moron</name></author> 
    <time>2020-06-11T18:07:51Z</time>
  </metadata>
  <trk>
    <name>Cycling 14.32 km, 2020-06-11</name>
    <trkseg>
      <trkpt lat="51.228516201284" lon="4.447314350993">
        <ele>0</ele>
        <time>2020-06-11T18:07:51Z</time>
      </trkpt>
      <trkpt lat="51.22827094689" lon="4.447041771605">
        <ele>0</ele>
        <time>2020-06-11T18:08:01Z</time>
      </trkpt>
      <trkpt lat="51.227878925427" lon="4.447690530665">
        <ele>0</ele>
        <time>2020-06-11T18:08:21Z</time>
      </trkpt>
      <trkpt lat="51.227474834028" lon="4.448296542035">
        <ele>0</ele>
        <time>2020-06-11T18:08:40Z</time>
      </trkpt>
      <trkpt lat="51.227130757033" lon="4.448997268875">
        <ele>0</ele>
        <time>2020-06-11T18:08:59Z</time>
      </trkpt>
      <trkpt lat="51.22671694263" lon="4.449501104884">
        <ele>0</ele>
        <time>2020-06-11T18:09:20Z</time>
      </trkpt>
      <trkpt lat="51.226639912969" lon="4.449579978563">
        <ele>0</ele>
        <time>2020-06-11T18:09:24Z</time>
      </trkpt>
      <trkpt lat="51.226568331543" lon="4.44952407129">
        <ele>0</ele>
        <time>2020-06-11T18:09:27Z</time>
      </trkpt>
      <trkpt lat="51.226573025407" lon="4.449415777142">
        <ele>0</ele>
        <time>2020-06-11T18:09:30Z</time>
      </trkpt>
      <trkpt lat="51.226587526094" lon="4.449354840729">
        <ele>0</ele>
        <time>2020-06-11T18:09:32Z</time>
      </trkpt>
      <trkpt lat="51.226235653932" lon="4.448780429122">
        <ele>0</ele>
        <time>2020-06-11T18:09:52Z</time>
      </trkpt>
      <trkpt lat="51.226193409156" lon="4.448832899816">
        <ele>0</ele>
        <time>2020-06-11T18:09:54Z</time>
      </trkpt>
      <trkpt lat="51.225834915293" lon="4.449504960558">
        <ele>0</ele>
        <time>2020-06-11T18:10:10Z</time>
      </trkpt>
      <trkpt lat="51.225313644932" lon="4.449659271337">
        <ele>0</ele>
        <time>2020-06-11T18:10:25Z</time>
      </trkpt>
      <trkpt lat="51.224835289899" lon="4.450065458211">
        <ele>0</ele>
        <time>2020-06-11T18:10:39Z</time>
      </trkpt>
      <trkpt lat="51.224453745811" lon="4.450680186757">
        <ele>0</ele>
        <time>2020-06-11T18:10:52Z</time>
      </trkpt>
      <trkpt lat="51.224048732403" lon="4.451255017459">
        <ele>0</ele>
        <time>2020-06-11T18:11:06Z</time>
      </trkpt>
      <trkpt lat="51.223987628352" lon="4.451307907248">
        <ele>0</ele>
        <time>2020-06-11T18:11:08Z</time>
      </trkpt>
      <trkpt lat="51.223445570879" lon="4.451217382728">
        <ele>0</ele>
        <time>2020-06-11T18:11:26Z</time>
      </trkpt>
      <trkpt lat="51.222917259722" lon="4.451044799407">
        <ele>0</ele>
        <time>2020-06-11T18:11:44Z</time>
      </trkpt>
      <trkpt lat="51.222362880856" lon="4.451081679767">
        <ele>0</ele>
        <time>2020-06-11T18:12:02Z</time>
      </trkpt>
      <trkpt lat="51.221841359038" lon="4.451383511986">
        <ele>0</ele>
        <time>2020-06-11T18:12:17Z</time>
      </trkpt>
      <trkpt lat="51.22133660102" lon="4.451557771687">
        <ele>0</ele>
        <time>2020-06-11T18:12:35Z</time>
      </trkpt>
      <trkpt lat="51.221278849729" lon="4.451630275122">
        <ele>0</ele>
        <time>2020-06-11T18:13:30Z</time>
      </trkpt>
      <trkpt lat="51.221241550274" lon="4.451626419448">
        <ele>0</ele>
        <time>2020-06-11T18:13:33Z</time>
      </trkpt>
      <trkpt lat="51.220678118956" lon="4.451702443281">
        <ele>0</ele>
        <time>2020-06-11T18:13:50Z</time>
      </trkpt>
      <trkpt lat="51.22011452" lon="4.451818867872">
        <ele>0</ele>
        <time>2020-06-11T18:14:05Z</time>
      </trkpt>
      <trkpt lat="51.219555111994" lon="4.451900759035">
        <ele>0</ele>
        <time>2020-06-11T18:14:20Z</time>
      </trkpt>
      <trkpt lat="51.219183207091" lon="4.451992457021">
        <ele>0</ele>
        <time>2020-06-11T18:14:29Z</time>
      </trkpt>
      <trkpt lat="51.218966534976" lon="4.4523227877">
        <ele>0</ele>
        <time>2020-06-11T18:14:37Z</time>
      </trkpt>
      <trkpt lat="51.218988914649" lon="4.452333181256">
        <ele>0</ele>
        <time>2020-06-11T18:14:41Z</time>
      </trkpt>
      <trkpt lat="51.219024705362" lon="4.452223546004">
        <ele>0</ele>
        <time>2020-06-11T18:14:46Z</time>
      </trkpt>
      <trkpt lat="51.219048174682" lon="4.452188006748">
        <ele>0</ele>
        <time>2020-06-11T18:19:48Z</time>
      </trkpt>
      <trkpt lat="51.219071979278" lon="4.452107708146">
        <ele>0</ele>
        <time>2020-06-11T18:19:51Z</time>
      </trkpt>
      <trkpt lat="51.219047839406" lon="4.452031349037">
        <ele>0</ele>
        <time>2020-06-11T18:19:53Z</time>
      </trkpt>
      <trkpt lat="51.218915489205" lon="4.451790620869">
        <ele>0</ele>
        <time>2020-06-11T18:19:58Z</time>
      </trkpt>
      <trkpt lat="51.218829407092" lon="4.45172012909">
        <ele>0</ele>
        <time>2020-06-11T18:20:00Z</time>
      </trkpt>
      <trkpt lat="51.21835935014" lon="4.451800260054">
        <ele>0</ele>
        <time>2020-06-11T18:20:19Z</time>
      </trkpt>
      <trkpt lat="51.218245943033" lon="4.452612047069">
        <ele>0</ele>
        <time>2020-06-11T18:20:43Z</time>
      </trkpt>
      <trkpt lat="51.218192047416" lon="4.453486279239">
        <ele>0</ele>
        <time>2020-06-11T18:21:03Z</time>
      </trkpt>
      <trkpt lat="51.218155502332" lon="4.454354308803">
        <ele>0</ele>
        <time>2020-06-11T18:21:22Z</time>
      </trkpt>
      <trkpt lat="51.218107390226" lon="4.455243376936">
        <ele>0</ele>
        <time>2020-06-11T18:21:38Z</time>
      </trkpt>
      <trkpt lat="51.218057434102" lon="4.456142670987">
        <ele>0</ele>
        <time>2020-06-11T18:21:57Z</time>
      </trkpt>
      <trkpt lat="51.218022816855" lon="4.457019920641">
        <ele>0.4</ele>
        <time>2020-06-11T18:22:16Z</time>
      </trkpt>
      <trkpt lat="51.218010160186" lon="4.457890464775">
        <ele>3.2</ele>
        <time>2020-06-11T18:22:34Z</time>
      </trkpt>
      <trkpt lat="51.218002867933" lon="4.458496308507">
        <ele>0.8</ele>
        <time>2020-06-11T18:22:53Z</time>
      </trkpt>
      <trkpt lat="51.217968334505" lon="4.458530841935">
        <ele>0</ele>
        <time>2020-06-11T18:23:10Z</time>
      </trkpt>
      <trkpt lat="51.217953582361" lon="4.45940381682">
        <ele>0.2</ele>
        <time>2020-06-11T18:23:34Z</time>
      </trkpt>
      <trkpt lat="51.217908068644" lon="4.460263129208">
        <ele>1.4</ele>
        <time>2020-06-11T18:24:04Z</time>
      </trkpt>
      <trkpt lat="51.217849646801" lon="4.461138199568">
        <ele>2.4</ele>
        <time>2020-06-11T18:24:24Z</time>
      </trkpt>
      <trkpt lat="51.217856352321" lon="4.461190083529">
        <ele>0.8</ele>
        <time>2020-06-11T18:24:28Z</time>
      </trkpt>
      <trkpt lat="51.217812598803" lon="4.462095915462">
        <ele>0</ele>
        <time>2020-06-11T18:24:48Z</time>
      </trkpt>
      <trkpt lat="51.217784603257" lon="4.462839138535">
        <ele>0</ele>
        <time>2020-06-11T18:25:02Z</time>
      </trkpt>
      <trkpt lat="51.217826764214" lon="4.462651132518">
        <ele>0</ele>
        <time>2020-06-11T18:25:09Z</time>
      </trkpt>
      <trkpt lat="51.217807234387" lon="4.462644510817">
        <ele>0</ele>
        <time>2020-06-11T18:25:11Z</time>
      </trkpt>
      <trkpt lat="51.217784854714" lon="4.462894626713">
        <ele>0</ele>
        <time>2020-06-11T18:25:20Z</time>
      </trkpt>
      <trkpt lat="51.217760463385" lon="4.463227304324">
        <ele>0</ele>
        <time>2020-06-11T18:25:39Z</time>
      </trkpt>
      <trkpt lat="51.217824668739" lon="4.463158740382">
        <ele>6</ele>
        <time>2020-06-11T18:25:47Z</time>
      </trkpt>
      <trkpt lat="51.217834056467" lon="4.462774262629">
        <ele>7.8</ele>
        <time>2020-06-11T18:25:57Z</time>
      </trkpt>
      <trkpt lat="51.217802289066" lon="4.462793540999">
        <ele>7</ele>
        <time>2020-06-11T18:26:00Z</time>
      </trkpt>
      <trkpt lat="51.217753087313" lon="4.463651177007">
        <ele>0</ele>
        <time>2020-06-11T18:26:20Z</time>
      </trkpt>
      <trkpt lat="51.217702795913" lon="4.46453940695">
        <ele>0</ele>
        <time>2020-06-11T18:26:40Z</time>
      </trkpt>
      <trkpt lat="51.217641524224" lon="4.465417159518">
        <ele>0</ele>
        <time>2020-06-11T18:26:55Z</time>
      </trkpt>
      <trkpt lat="51.217590478453" lon="4.46628284215">
        <ele>0</ele>
        <time>2020-06-11T18:27:11Z</time>
      </trkpt>
      <trkpt lat="51.217583772933" lon="4.4671755145">
        <ele>4.2</ele>
        <time>2020-06-11T18:27:29Z</time>
      </trkpt>
      <trkpt lat="51.21755133498" lon="4.468038514924">
        <ele>5</ele>
        <time>2020-06-11T18:27:49Z</time>
      </trkpt>
      <trkpt lat="51.217462989754" lon="4.468897743493">
        <ele>2.4</ele>
        <time>2020-06-11T18:28:08Z</time>
      </trkpt>
      <trkpt lat="51.217015815389" lon="4.469382804046">
        <ele>0</ele>
        <time>2020-06-11T18:28:29Z</time>
      </trkpt>
      <trkpt lat="51.216534526691" lon="4.469768958179">
        <ele>0</ele>
        <time>2020-06-11T18:28:48Z</time>
      </trkpt>
      <trkpt lat="51.216066816671" lon="4.470223257159">
        <ele>0</ele>
        <time>2020-06-11T18:29:06Z</time>
      </trkpt>
      <trkpt lat="51.215646212929" lon="4.470768499754">
        <ele>0</ele>
        <time>2020-06-11T18:29:21Z</time>
      </trkpt>
      <trkpt lat="51.215617546831" lon="4.47109572913">
        <ele>0</ele>
        <time>2020-06-11T18:29:27Z</time>
      </trkpt>
      <trkpt lat="51.215194260881" lon="4.471485990394">
        <ele>0</ele>
        <time>2020-06-11T18:29:43Z</time>
      </trkpt>
      <trkpt lat="51.214685898646" lon="4.471799473454">
        <ele>6.2</ele>
        <time>2020-06-11T18:30:03Z</time>
      </trkpt>
      <trkpt lat="51.214447349772" lon="4.472059060897">
        <ele>4.8</ele>
        <time>2020-06-11T18:30:17Z</time>
      </trkpt>
      <trkpt lat="51.214451373084" lon="4.47127342541">
        <ele>0.2</ele>
        <time>2020-06-11T18:30:41Z</time>
      </trkpt>
      <trkpt lat="51.214256493909" lon="4.47043942636">
        <ele>3.2</ele>
        <time>2020-06-11T18:31:03Z</time>
      </trkpt>
      <trkpt lat="51.214489594548" lon="4.469650019018">
        <ele>2.2</ele>
        <time>2020-06-11T18:31:22Z</time>
      </trkpt>
      <trkpt lat="51.2144483556" lon="4.469221452471">
        <ele>1.4</ele>
        <time>2020-06-11T18:31:33Z</time>
      </trkpt>
      <trkpt lat="51.214111319401" lon="4.469908768271">
        <ele>0.2</ele>
        <time>2020-06-11T18:31:51Z</time>
      </trkpt>
      <trkpt lat="51.213990033308" lon="4.470736229439">
        <ele>3.8</ele>
        <time>2020-06-11T18:32:09Z</time>
      </trkpt>
      <trkpt lat="51.213707228002" lon="4.471376941875">
        <ele>0</ele>
        <time>2020-06-11T18:32:31Z</time>
      </trkpt>
      <trkpt lat="51.21339894172" lon="4.471431088949">
        <ele>0</ele>
        <time>2020-06-11T18:32:45Z</time>
      </trkpt>
      <trkpt lat="51.213413945321" lon="4.471371912735">
        <ele>0</ele>
        <time>2020-06-11T18:32:47Z</time>
      </trkpt>
      <trkpt lat="51.213423835963" lon="4.470577392434">
        <ele>0</ele>
        <time>2020-06-11T18:33:04Z</time>
      </trkpt>
      <trkpt lat="51.213224849657" lon="4.469749931266">
        <ele>0</ele>
        <time>2020-06-11T18:33:23Z</time>
      </trkpt>
      <trkpt lat="51.213178162474" lon="4.468901850624">
        <ele>0</ele>
        <time>2020-06-11T18:33:39Z</time>
      </trkpt>
      <trkpt lat="51.212824865389" lon="4.468220234516">
        <ele>0</ele>
        <time>2020-06-11T18:33:57Z</time>
      </trkpt>
      <trkpt lat="51.212681618718" lon="4.467389001493">
        <ele>4.6</ele>
        <time>2020-06-11T18:34:17Z</time>
      </trkpt>
      <trkpt lat="51.212279622794" lon="4.466842082518">
        <ele>2.4</ele>
        <time>2020-06-11T18:34:35Z</time>
      </trkpt>
      <trkpt lat="51.212172334474" lon="4.465989810926">
        <ele>0</ele>
        <time>2020-06-11T18:34:54Z</time>
      </trkpt>
      <trkpt lat="51.211824066529" lon="4.465512126445">
        <ele>0</ele>
        <time>2020-06-11T18:35:10Z</time>
      </trkpt>
      <trkpt lat="51.211591133528" lon="4.46581010299">
        <ele>0</ele>
        <time>2020-06-11T18:35:23Z</time>
      </trkpt>
      <trkpt lat="51.211578979773" lon="4.466528180363">
        <ele>2</ele>
        <time>2020-06-11T18:35:42Z</time>
      </trkpt>
      <trkpt lat="51.211550062218" lon="4.466543100145">
        <ele>1.4</ele>
        <time>2020-06-11T18:35:45Z</time>
      </trkpt>
      <trkpt lat="51.211541596499" lon="4.466578052668">
        <ele>2</ele>
        <time>2020-06-11T18:35:47Z</time>
      </trkpt>
      <trkpt lat="51.211542686146" lon="4.467469551552">
        <ele>3</ele>
        <time>2020-06-11T18:36:11Z</time>
      </trkpt>
      <trkpt lat="51.211484180484" lon="4.46835233326">
        <ele>3.4</ele>
        <time>2020-06-11T18:36:31Z</time>
      </trkpt>
      <trkpt lat="51.211402121683" lon="4.469213824942">
        <ele>2</ele>
        <time>2020-06-11T18:36:52Z</time>
      </trkpt>
      <trkpt lat="51.211513684772" lon="4.470068275828">
        <ele>2.6</ele>
        <time>2020-06-11T18:37:12Z</time>
      </trkpt>
      <trkpt lat="51.211743181194" lon="4.470857431713">
        <ele>0.2</ele>
        <time>2020-06-11T18:37:32Z</time>
      </trkpt>
      <trkpt lat="51.211759861175" lon="4.471153396602">
        <ele>0</ele>
        <time>2020-06-11T18:37:44Z</time>
      </trkpt>
      <trkpt lat="51.211779391002" lon="4.471213997739">
        <ele>0</ele>
        <time>2020-06-11T18:37:49Z</time>
      </trkpt>
      <trkpt lat="51.21174184009" lon="4.471252219203">
        <ele>5.6</ele>
        <time>2020-06-11T18:38:42Z</time>
      </trkpt>
      <trkpt lat="51.211772601663" lon="4.471184996365">
        <ele>18.4</ele>
        <time>2020-06-11T18:38:58Z</time>
      </trkpt>
      <trkpt lat="51.21179548425" lon="4.471152474593">
        <ele>19.2</ele>
        <time>2020-06-11T18:39:01Z</time>
      </trkpt>
      <trkpt lat="51.211790790386" lon="4.471093466017">
        <ele>18.4</ele>
        <time>2020-06-11T18:39:03Z</time>
      </trkpt>
      <trkpt lat="51.211764555039" lon="4.471066895394">
        <ele>17.4</ele>
        <time>2020-06-11T18:39:05Z</time>
      </trkpt>
      <trkpt lat="51.211714934191" lon="4.471929225266">
        <ele>16.8</ele>
        <time>2020-06-11T18:39:29Z</time>
      </trkpt>
      <trkpt lat="51.211895396498" lon="4.472512018773">
        <ele>0</ele>
        <time>2020-06-11T18:39:57Z</time>
      </trkpt>
      <trkpt lat="51.212331171479" lon="4.473024991053">
        <ele>2.4</ele>
        <time>2020-06-11T18:40:27Z</time>
      </trkpt>
      <trkpt lat="51.212354724618" lon="4.473016525334">
        <ele>7.6</ele>
        <time>2020-06-11T18:40:49Z</time>
      </trkpt>
      <trkpt lat="51.212412895004" lon="4.473041587215">
        <ele>9.6</ele>
        <time>2020-06-11T18:42:08Z</time>
      </trkpt>
      <trkpt lat="51.212470813933" lon="4.473082909982">
        <ele>9</ele>
        <time>2020-06-11T18:42:19Z</time>
      </trkpt>
      <trkpt lat="51.212723444399" lon="4.473419778543">
        <ele>4.8</ele>
        <time>2020-06-11T18:42:40Z</time>
      </trkpt>
      <trkpt lat="51.212827631416" lon="4.473483061888">
        <ele>0</ele>
        <time>2020-06-11T18:44:07Z</time>
      </trkpt>
      <trkpt lat="51.212858560627" lon="4.473480547318">
        <ele>0</ele>
        <time>2020-06-11T18:44:10Z</time>
      </trkpt>
      <trkpt lat="51.213205571287" lon="4.474134670794">
        <ele>2.6</ele>
        <time>2020-06-11T18:44:30Z</time>
      </trkpt>
      <trkpt lat="51.213369521251" lon="4.474983338169">
        <ele>0</ele>
        <time>2020-06-11T18:44:49Z</time>
      </trkpt>
      <trkpt lat="51.213500949443" lon="4.475873495949">
        <ele>0.2</ele>
        <time>2020-06-11T18:45:07Z</time>
      </trkpt>
      <trkpt lat="51.213700438663" lon="4.476987115183">
        <ele>3.2</ele>
        <time>2020-06-11T18:45:26Z</time>
      </trkpt>
      <trkpt lat="51.214050550626" lon="4.477625061592">
        <ele>0</ele>
        <time>2020-06-11T18:45:45Z</time>
      </trkpt>
      <trkpt lat="51.214471657282" lon="4.478187151806">
        <ele>3.4</ele>
        <time>2020-06-11T18:46:02Z</time>
      </trkpt>
      <trkpt lat="51.214929560479" lon="4.478638684759">
        <ele>7.6</ele>
        <time>2020-06-11T18:46:16Z</time>
      </trkpt>
      <trkpt lat="51.215180346927" lon="4.478786457656">
        <ele>6</ele>
        <time>2020-06-11T18:46:24Z</time>
      </trkpt>
      <trkpt lat="51.215716704708" lon="4.47892358554">
        <ele>3.4</ele>
        <time>2020-06-11T18:46:40Z</time>
      </trkpt>
      <trkpt lat="51.216163459978" lon="4.47938710461">
        <ele>5.4</ele>
        <time>2020-06-11T18:47:00Z</time>
      </trkpt>
      <trkpt lat="51.216149713662" lon="4.480250524129">
        <ele>6</ele>
        <time>2020-06-11T18:47:19Z</time>
      </trkpt>
      <trkpt lat="51.216161113046" lon="4.480333924034">
        <ele>6.2</ele>
        <time>2020-06-11T18:47:21Z</time>
      </trkpt>
      <trkpt lat="51.216127166351" lon="4.480374660068">
        <ele>6</ele>
        <time>2020-06-11T18:47:23Z</time>
      </trkpt>
      <trkpt lat="51.215568680354" lon="4.480301737538">
        <ele>7.4</ele>
        <time>2020-06-11T18:47:43Z</time>
      </trkpt>
      <trkpt lat="51.215015894049" lon="4.480254547441">
        <ele>7.6</ele>
        <time>2020-06-11T18:47:57Z</time>
      </trkpt>
      <trkpt lat="51.214479452449" lon="4.480153964641">
        <ele>1.6</ele>
        <time>2020-06-11T18:48:16Z</time>
      </trkpt>
      <trkpt lat="51.213997577018" lon="4.479752052536">
        <ele>0</ele>
        <time>2020-06-11T18:48:29Z</time>
      </trkpt>
      <trkpt lat="51.213510001895" lon="4.479324072722">
        <ele>0.8</ele>
        <time>2020-06-11T18:48:45Z</time>
      </trkpt>
      <trkpt lat="51.213036927459" lon="4.478840856187">
        <ele>5.4</ele>
        <time>2020-06-11T18:49:10Z</time>
      </trkpt>
      <trkpt lat="51.212535522201" lon="4.478444476136">
        <ele>8.6</ele>
        <time>2020-06-11T18:49:25Z</time>
      </trkpt>
      <trkpt lat="51.211978712584" lon="4.478340372938">
        <ele>11.4</ele>
        <time>2020-06-11T18:49:47Z</time>
      </trkpt>
      <trkpt lat="51.211707809576" lon="4.478908917215">
        <ele>8.2</ele>
        <time>2020-06-11T18:50:06Z</time>
      </trkpt>
      <trkpt lat="51.211672018863" lon="4.478884693524">
        <ele>8.8</ele>
        <time>2020-06-11T18:50:08Z</time>
      </trkpt>
      <trkpt lat="51.211329785886" lon="4.478191929489">
        <ele>7.6</ele>
        <time>2020-06-11T18:50:34Z</time>
      </trkpt>
      <trkpt lat="51.211016638102" lon="4.477488855717">
        <ele>3.6</ele>
        <time>2020-06-11T18:50:51Z</time>
      </trkpt>
      <trkpt lat="51.210737353194" lon="4.47673590964">
        <ele>6.8</ele>
        <time>2020-06-11T18:51:06Z</time>
      </trkpt>
      <trkpt lat="51.21050634803" lon="4.475909035205">
        <ele>7.8</ele>
        <time>2020-06-11T18:51:21Z</time>
      </trkpt>
      <trkpt lat="51.21032194623" lon="4.475050561007">
        <ele>7.8</ele>
        <time>2020-06-11T18:51:35Z</time>
      </trkpt>
      <trkpt lat="51.210121115906" lon="4.47425319086">
        <ele>8.2</ele>
        <time>2020-06-11T18:51:48Z</time>
      </trkpt>
      <trkpt lat="51.209827162673" lon="4.473519355515">
        <ele>8.4</ele>
        <time>2020-06-11T18:52:01Z</time>
      </trkpt>
      <trkpt lat="51.209405720741" lon="4.472904710788">
        <ele>7.2</ele>
        <time>2020-06-11T18:52:14Z</time>
      </trkpt>
      <trkpt lat="51.20902945725" lon="4.472333903398">
        <ele>7</ele>
        <time>2020-06-11T18:52:28Z</time>
      </trkpt>
      <trkpt lat="51.209060889375" lon="4.471434860804">
        <ele>5.4</ele>
        <time>2020-06-11T18:52:45Z</time>
      </trkpt>
      <trkpt lat="51.20906382304" lon="4.470546798499">
        <ele>9.6</ele>
        <time>2020-06-11T18:53:03Z</time>
      </trkpt>
      <trkpt lat="51.209087040903" lon="4.469782620676">
        <ele>12.6</ele>
        <time>2020-06-11T18:53:20Z</time>
      </trkpt>
      <trkpt lat="51.209124591815" lon="4.469774825509">
        <ele>13</ele>
        <time>2020-06-11T18:53:22Z</time>
      </trkpt>
      <trkpt lat="51.209671594609" lon="4.469895692507">
        <ele>10.8</ele>
        <time>2020-06-11T18:53:40Z</time>
      </trkpt>
      <trkpt lat="51.210225302923" lon="4.470028210346">
        <ele>14.6</ele>
        <time>2020-06-11T18:53:58Z</time>
      </trkpt>
      <trkpt lat="51.21053484649" lon="4.470031730744">
        <ele>13.6</ele>
        <time>2020-06-11T18:54:08Z</time>
      </trkpt>
      <trkpt lat="51.210570553384" lon="4.4699331596">
        <ele>13.8</ele>
        <time>2020-06-11T18:54:10Z</time>
      </trkpt>
      <trkpt lat="51.210532164282" lon="4.469043756191">
        <ele>9.4</ele>
        <time>2020-06-11T18:54:26Z</time>
      </trkpt>
      <trkpt lat="51.210469635308" lon="4.468163069958">
        <ele>3.2</ele>
        <time>2020-06-11T18:54:43Z</time>
      </trkpt>
      <trkpt lat="51.210362514626" lon="4.467282299906">
        <ele>6</ele>
        <time>2020-06-11T18:54:59Z</time>
      </trkpt>
      <trkpt lat="51.21036553211" lon="4.466367583159">
        <ele>1.2</ele>
        <time>2020-06-11T18:55:15Z</time>
      </trkpt>
      <trkpt lat="51.210462175417" lon="4.465511120617">
        <ele>0</ele>
        <time>2020-06-11T18:55:31Z</time>
      </trkpt>
      <trkpt lat="51.210559237819" lon="4.464654574256">
        <ele>1</ele>
        <time>2020-06-11T18:55:46Z</time>
      </trkpt>
      <trkpt lat="51.21061531273" lon="4.463770367625">
        <ele>11.4</ele>
        <time>2020-06-11T18:56:04Z</time>
      </trkpt>
      <trkpt lat="51.210707345992" lon="4.462947097407">
        <ele>9</ele>
        <time>2020-06-11T18:56:20Z</time>
      </trkpt>
      <trkpt lat="51.210935920405" lon="4.462142435007">
        <ele>9.4</ele>
        <time>2020-06-11T18:56:37Z</time>
      </trkpt>
      <trkpt lat="51.21126155722" lon="4.461448329868">
        <ele>8.6</ele>
        <time>2020-06-11T18:56:55Z</time>
      </trkpt>
      <trkpt lat="51.211650896475" lon="4.46082706344">
        <ele>8.6</ele>
        <time>2020-06-11T18:57:10Z</time>
      </trkpt>
      <trkpt lat="51.212080133574" lon="4.460244856666">
        <ele>11.6</ele>
        <time>2020-06-11T18:57:25Z</time>
      </trkpt>
      <trkpt lat="51.212526553568" lon="4.4597156235">
        <ele>14.6</ele>
        <time>2020-06-11T18:57:39Z</time>
      </trkpt>
      <trkpt lat="51.213029886663" lon="4.459295187396">
        <ele>16.8</ele>
        <time>2020-06-11T18:57:56Z</time>
      </trkpt>
      <trkpt lat="51.213521736555" lon="4.458823118788">
        <ele>15.2</ele>
        <time>2020-06-11T18:58:11Z</time>
      </trkpt>
      <trkpt lat="51.213996990285" lon="4.458637292065">
        <ele>15</ele>
        <time>2020-06-11T18:58:27Z</time>
      </trkpt>
      <trkpt lat="51.214225983793" lon="4.459447570338">
        <ele>11.2</ele>
        <time>2020-06-11T18:58:41Z</time>
      </trkpt>
      <trkpt lat="51.214508286185" lon="4.46022189026">
        <ele>8.6</ele>
        <time>2020-06-11T18:58:55Z</time>
      </trkpt>
      <trkpt lat="51.214815566639" lon="4.460968130817">
        <ele>6.2</ele>
        <time>2020-06-11T18:59:11Z</time>
      </trkpt>
      <trkpt lat="51.215144975309" lon="4.461713449365">
        <ele>6</ele>
        <time>2020-06-11T18:59:28Z</time>
      </trkpt>
      <trkpt lat="51.215421410371" lon="4.462464635243">
        <ele>8.4</ele>
        <time>2020-06-11T18:59:44Z</time>
      </trkpt>
      <trkpt lat="51.215748136833" lon="4.463156812545">
        <ele>7.8</ele>
        <time>2020-06-11T19:00:02Z</time>
      </trkpt>
      <trkpt lat="51.2163091374" lon="4.463212468361">
        <ele>7.8</ele>
        <time>2020-06-11T19:00:18Z</time>
      </trkpt>
      <trkpt lat="51.21684893176" lon="4.463147089541">
        <ele>4.2</ele>
        <time>2020-06-11T19:00:33Z</time>
      </trkpt>
      <trkpt lat="51.217409932327" lon="4.463148598283">
        <ele>8.8</ele>
        <time>2020-06-11T19:00:52Z</time>
      </trkpt>
      <trkpt lat="51.217962131899" lon="4.463163685703">
        <ele>9.4</ele>
        <time>2020-06-11T19:01:15Z</time>
      </trkpt>
      <trkpt lat="51.218527993968" lon="4.463129319913">
        <ele>15.2</ele>
        <time>2020-06-11T19:01:43Z</time>
      </trkpt>
      <trkpt lat="51.219089916544" lon="4.463124961325">
        <ele>14</ele>
        <time>2020-06-11T19:02:08Z</time>
      </trkpt>
      <trkpt lat="51.219643876315" lon="4.463140803116">
        <ele>15.4</ele>
        <time>2020-06-11T19:02:31Z</time>
      </trkpt>
      <trkpt lat="51.220035646321" lon="4.463717896931">
        <ele>14.2</ele>
        <time>2020-06-11T19:02:48Z</time>
      </trkpt>
      <trkpt lat="51.220155423672" lon="4.464589614531">
        <ele>21.2</ele>
        <time>2020-06-11T19:03:03Z</time>
      </trkpt>
      <trkpt lat="51.220081243857" lon="4.465491339333">
        <ele>18.6</ele>
        <time>2020-06-11T19:03:19Z</time>
      </trkpt>
      <trkpt lat="51.220014691571" lon="4.466393231773">
        <ele>17.8</ele>
        <time>2020-06-11T19:03:35Z</time>
      </trkpt>
      <trkpt lat="51.219962053239" lon="4.467272409264">
        <ele>14.2</ele>
        <time>2020-06-11T19:03:53Z</time>
      </trkpt>
      <trkpt lat="51.21995023476" lon="4.468171032763">
        <ele>14.8</ele>
        <time>2020-06-11T19:04:11Z</time>
      </trkpt>
      <trkpt lat="51.219866248122" lon="4.468985837262">
        <ele>4</ele>
        <time>2020-06-11T19:04:35Z</time>
      </trkpt>
      <trkpt lat="51.220137737863" lon="4.469113242142">
        <ele>28.2</ele>
        <time>2020-06-11T19:07:41Z</time>
      </trkpt>
      <trkpt lat="51.220698989887" lon="4.46907485304">
        <ele>28.6</ele>
        <time>2020-06-11T19:08:04Z</time>
      </trkpt>
      <trkpt lat="51.22126786944" lon="4.468890535059">
        <ele>21.2</ele>
        <time>2020-06-11T19:08:20Z</time>
      </trkpt>
      <trkpt lat="51.221846136721" lon="4.469078373438">
        <ele>17.8</ele>
        <time>2020-06-11T19:08:34Z</time>
      </trkpt>
      <trkpt lat="51.222387942737" lon="4.469143333163">
        <ele>17.2</ele>
        <time>2020-06-11T19:08:48Z</time>
      </trkpt>
      <trkpt lat="51.222864705209" lon="4.469197564056">
        <ele>15.8</ele>
        <time>2020-06-11T19:09:00Z</time>
      </trkpt>
      <trkpt lat="51.2234002248" lon="4.469186835224">
        <ele>14.2</ele>
        <time>2020-06-11T19:09:14Z</time>
      </trkpt>
      <trkpt lat="51.22395929753" lon="4.469246765809">
        <ele>13.8</ele>
        <time>2020-06-11T19:09:29Z</time>
      </trkpt>
      <trkpt lat="51.224500935908" lon="4.469226397792">
        <ele>11.8</ele>
        <time>2020-06-11T19:09:46Z</time>
      </trkpt>
      <trkpt lat="51.224967137186" lon="4.4693045171">
        <ele>10.2</ele>
        <time>2020-06-11T19:10:04Z</time>
      </trkpt>
      <trkpt lat="51.225496286533" lon="4.469314659199">
        <ele>10.8</ele>
        <time>2020-06-11T19:10:23Z</time>
      </trkpt>
      <trkpt lat="51.226037841092" lon="4.469318431054">
        <ele>12.2</ele>
        <time>2020-06-11T19:10:37Z</time>
      </trkpt>
      <trkpt lat="51.226603954618" lon="4.469291525155">
        <ele>10.8</ele>
        <time>2020-06-11T19:10:54Z</time>
      </trkpt>
      <trkpt lat="51.227166296289" lon="4.469250956759">
        <ele>11.8</ele>
        <time>2020-06-11T19:11:10Z</time>
      </trkpt>
      <trkpt lat="51.228085371624" lon="4.469216674788">
        <ele>14.2</ele>
        <time>2020-06-11T19:11:36Z</time>
      </trkpt>
      <trkpt lat="51.228094843171" lon="4.469262439962">
        <ele>14.4</ele>
        <time>2020-06-11T19:11:37Z</time>
      </trkpt>
      <trkpt lat="51.228357699555" lon="4.469993257823">
        <ele>11.4</ele>
        <time>2020-06-11T19:12:00Z</time>
      </trkpt>
      <trkpt lat="51.228414445018" lon="4.469939948939">
        <ele>10.6</ele>
        <time>2020-06-11T19:12:05Z</time>
      </trkpt>
      <trkpt lat="51.228608318365" lon="4.46977138893">
        <ele>11.2</ele>
        <time>2020-06-11T19:12:18Z</time>
      </trkpt>
      <trkpt lat="51.229138892635" lon="4.469952521789">
        <ele>8.4</ele>
        <time>2020-06-11T19:12:34Z</time>
      </trkpt>
      <trkpt lat="51.229684386687" lon="4.469932489048">
        <ele>11.2</ele>
        <time>2020-06-11T19:12:52Z</time>
      </trkpt>
      <trkpt lat="51.230193670931" lon="4.46960291274">
        <ele>13.6</ele>
        <time>2020-06-11T19:13:09Z</time>
      </trkpt>
      <trkpt lat="51.230691052877" lon="4.469235701701">
        <ele>11</ele>
        <time>2020-06-11T19:13:27Z</time>
      </trkpt>
      <trkpt lat="51.231178963276" lon="4.468800848729">
        <ele>10.8</ele>
        <time>2020-06-11T19:13:44Z</time>
      </trkpt>
      <trkpt lat="51.231520777158" lon="4.468110012531">
        <ele>6</ele>
        <time>2020-06-11T19:14:00Z</time>
      </trkpt>
      <trkpt lat="51.231828392888" lon="4.467420768894">
        <ele>4.4</ele>
        <time>2020-06-11T19:14:15Z</time>
      </trkpt>
      <trkpt lat="51.231800648799" lon="4.467341895215">
        <ele>4.6</ele>
        <time>2020-06-11T19:14:17Z</time>
      </trkpt>
      <trkpt lat="51.23125909424" lon="4.467370226037">
        <ele>8.8</ele>
        <time>2020-06-11T19:14:33Z</time>
      </trkpt>
      <trkpt lat="51.230723993744" lon="4.467410375338">
        <ele>10</ele>
        <time>2020-06-11T19:14:51Z</time>
      </trkpt>
      <trkpt lat="51.230724077563" lon="4.467344745061">
        <ele>9</ele>
        <time>2020-06-11T19:14:53Z</time>
      </trkpt>
      <trkpt lat="51.230770597108" lon="4.466445534829">
        <ele>6.2</ele>
        <time>2020-06-11T19:15:09Z</time>
      </trkpt>
      <trkpt lat="51.230784594881" lon="4.465546576054">
        <ele>7.4</ele>
        <time>2020-06-11T19:15:23Z</time>
      </trkpt>
      <trkpt lat="51.230783169958" lon="4.465092025617">
        <ele>8.4</ele>
        <time>2020-06-11T19:15:30Z</time>
      </trkpt>
      <trkpt lat="51.230747463064" lon="4.464966632393">
        <ele>8.2</ele>
        <time>2020-06-11T19:15:32Z</time>
      </trkpt>
      <trkpt lat="51.230569431508" lon="4.464142523985">
        <ele>6</ele>
        <time>2020-06-11T19:15:47Z</time>
      </trkpt>
      <trkpt lat="51.230198029519" lon="4.463835159712">
        <ele>6.2</ele>
        <time>2020-06-11T19:16:05Z</time>
      </trkpt>
      <trkpt lat="51.229668544896" lon="4.464072618939">
        <ele>1.2</ele>
        <time>2020-06-11T19:16:23Z</time>
      </trkpt>
      <trkpt lat="51.229134869323" lon="4.464155599749">
        <ele>8.4</ele>
        <time>2020-06-11T19:16:41Z</time>
      </trkpt>
      <trkpt lat="51.229088768873" lon="4.464110337489">
        <ele>7.8</ele>
        <time>2020-06-11T19:16:43Z</time>
      </trkpt>
      <trkpt lat="51.229075022557" lon="4.463242894658">
        <ele>7.2</ele>
        <time>2020-06-11T19:16:57Z</time>
      </trkpt>
      <trkpt lat="51.229017355085" lon="4.462360029131">
        <ele>4.2</ele>
        <time>2020-06-11T19:17:12Z</time>
      </trkpt>
      <trkpt lat="51.229010733384" lon="4.461486132237">
        <ele>8.4</ele>
        <time>2020-06-11T19:17:34Z</time>
      </trkpt>
      <trkpt lat="51.22892892604" lon="4.461121687225">
        <ele>10.2</ele>
        <time>2020-06-11T19:17:41Z</time>
      </trkpt>
      <trkpt lat="51.22840086634" lon="4.460917923236">
        <ele>13.2</ele>
        <time>2020-06-11T19:17:56Z</time>
      </trkpt>
      <trkpt lat="51.227938101641" lon="4.46046664174">
        <ele>11.6</ele>
        <time>2020-06-11T19:18:12Z</time>
      </trkpt>
      <trkpt lat="51.227430912872" lon="4.460835864435">
        <ele>9.4</ele>
        <time>2020-06-11T19:18:28Z</time>
      </trkpt>
      <trkpt lat="51.227303507992" lon="4.460608212031">
        <ele>10.8</ele>
        <time>2020-06-11T19:18:33Z</time>
      </trkpt>
      <trkpt lat="51.227156489466" lon="4.459755605163">
        <ele>13</ele>
        <time>2020-06-11T19:18:48Z</time>
      </trkpt>
      <trkpt lat="51.227033862269" lon="4.459196280976">
        <ele>14</ele>
        <time>2020-06-11T19:19:00Z</time>
      </trkpt>
      <trkpt lat="51.227539542296" lon="4.458830243403">
        <ele>15.4</ele>
        <time>2020-06-11T19:19:16Z</time>
      </trkpt>
      <trkpt lat="51.22804547378" lon="4.458516257429">
        <ele>14.6</ele>
        <time>2020-06-11T19:19:31Z</time>
      </trkpt>
      <trkpt lat="51.228530115238" lon="4.458149297847">
        <ele>11.8</ele>
        <time>2020-06-11T19:19:46Z</time>
      </trkpt>
      <trkpt lat="51.22852408027" lon="4.458087607063">
        <ele>12.2</ele>
        <time>2020-06-11T19:19:47Z</time>
      </trkpt>
      <trkpt lat="51.228345126705" lon="4.457317813367">
        <ele>11</ele>
        <time>2020-06-11T19:20:03Z</time>
      </trkpt>
      <trkpt lat="51.227856545754" lon="4.457696675247">
        <ele>1.2</ele>
        <time>2020-06-11T19:20:24Z</time>
      </trkpt>
      <trkpt lat="51.227522610858" lon="4.457946539686">
        <ele>0</ele>
        <time>2020-06-11T19:20:39Z</time>
      </trkpt>
      <trkpt lat="51.226997233366" lon="4.458172012796">
        <ele>3</ele>
        <time>2020-06-11T19:20:57Z</time>
      </trkpt>
      <trkpt lat="51.226889106856" lon="4.458225656956">
        <ele>4.4</ele>
        <time>2020-06-11T19:21:02Z</time>
      </trkpt>
      <trkpt lat="51.22685189122" lon="4.458152902064">
        <ele>5.2</ele>
        <time>2020-06-11T19:21:04Z</time>
      </trkpt>
      <trkpt lat="51.226869744667" lon="4.457747804837">
        <ele>7.2</ele>
        <time>2020-06-11T19:21:15Z</time>
      </trkpt>
      <trkpt lat="51.226679726994" lon="4.456919002565">
        <ele>13</ele>
        <time>2020-06-11T19:21:32Z</time>
      </trkpt>
      <trkpt lat="51.226731359498" lon="4.456063210575">
        <ele>8.6</ele>
        <time>2020-06-11T19:21:47Z</time>
      </trkpt>
      <trkpt lat="51.226810903729" lon="4.455204233463">
        <ele>8</ele>
        <time>2020-06-11T19:22:02Z</time>
      </trkpt>
      <trkpt lat="51.226833199583" lon="4.454627894019">
        <ele>10</ele>
        <time>2020-06-11T19:22:15Z</time>
      </trkpt>
      <trkpt lat="51.226293153766" lon="4.454613477151">
        <ele>11.6</ele>
        <time>2020-06-11T19:22:31Z</time>
      </trkpt>
      <trkpt lat="51.225733410484" lon="4.454636611195">
        <ele>11</ele>
        <time>2020-06-11T19:22:48Z</time>
      </trkpt>
      <trkpt lat="51.225181881464" lon="4.454644322543">
        <ele>6.8</ele>
        <time>2020-06-11T19:23:05Z</time>
      </trkpt>
      <trkpt lat="51.225044502123" lon="4.454627642562">
        <ele>7.4</ele>
        <time>2020-06-11T19:23:10Z</time>
      </trkpt>
      <trkpt lat="51.224993540171" lon="4.453774951875">
        <ele>3</ele>
        <time>2020-06-11T19:23:26Z</time>
      </trkpt>
      <trkpt lat="51.224953642327" lon="4.45291119708">
        <ele>2.2</ele>
        <time>2020-06-11T19:23:42Z</time>
      </trkpt>
      <trkpt lat="51.224992701981" lon="4.452204519091">
        <ele>4.6</ele>
        <time>2020-06-11T19:23:56Z</time>
      </trkpt>
      <trkpt lat="51.224449554861" lon="4.452019782015">
        <ele>4.6</ele>
        <time>2020-06-11T19:24:14Z</time>
      </trkpt>
      <trkpt lat="51.223907162112" lon="4.451728091895">
        <ele>7.4</ele>
        <time>2020-06-11T19:24:29Z</time>
      </trkpt>
      <trkpt lat="51.223490414044" lon="4.451273122363">
        <ele>6.4</ele>
        <time>2020-06-11T19:24:46Z</time>
      </trkpt>
      <trkpt lat="51.22400791255" lon="4.451328191446">
        <ele>5.2</ele>
        <time>2020-06-11T19:25:04Z</time>
      </trkpt>
      <trkpt lat="51.224442681703" lon="4.450833156432">
        <ele>6</ele>
        <time>2020-06-11T19:25:23Z</time>
      </trkpt>
      <trkpt lat="51.224831685682" lon="4.450209375434">
        <ele>5</ele>
        <time>2020-06-11T19:25:40Z</time>
      </trkpt>
      <trkpt lat="51.225301155901" lon="4.449743090337">
        <ele>6</ele>
        <time>2020-06-11T19:26:04Z</time>
      </trkpt>
      <trkpt lat="51.225831143438" lon="4.449633455085">
        <ele>5.8</ele>
        <time>2020-06-11T19:26:23Z</time>
      </trkpt>
      <trkpt lat="51.226211094965" lon="4.449029120095">
        <ele>6.4</ele>
        <time>2020-06-11T19:26:42Z</time>
      </trkpt>
      <trkpt lat="51.226502701266" lon="4.448260583684">
        <ele>6</ele>
        <time>2020-06-11T19:26:59Z</time>
      </trkpt>
      <trkpt lat="51.226920958076" lon="4.447663121852">
        <ele>4.8</ele>
        <time>2020-06-11T19:27:16Z</time>
      </trkpt>
      <trkpt lat="51.227329575701" lon="4.447043950899">
        <ele>4.8</ele>
        <time>2020-06-11T19:27:34Z</time>
      </trkpt>
      <trkpt lat="51.227722267716" lon="4.446458475184">
        <ele>4.4</ele>
        <time>2020-06-11T19:27:50Z</time>
      </trkpt>
      <trkpt lat="51.228129628056" lon="4.445877441876">
        <ele>4.6</ele>
        <time>2020-06-11T19:28:06Z</time>
      </trkpt>
      <trkpt lat="51.228420563805" lon="4.445154922096">
        <ele>4.4</ele>
        <time>2020-06-11T19:28:23Z</time>
      </trkpt>
      <trkpt lat="51.2287394951" lon="4.444439359293">
        <ele>5</ele>
        <time>2020-06-11T19:28:39Z</time>
      </trkpt>
      <trkpt lat="51.229204942007" lon="4.443938624587">
        <ele>4.8</ele>
        <time>2020-06-11T19:28:57Z</time>
      </trkpt>
      <trkpt lat="51.229481125612" lon="4.443857152519">
        <ele>4.4</ele>
        <time>2020-06-11T19:29:06Z</time>
      </trkpt>
      <trkpt lat="51.229719590667" lon="4.444653013924">
        <ele>4.4</ele>
        <time>2020-06-11T19:29:25Z</time>
      </trkpt>
      <trkpt lat="51.229708610378" lon="4.444882426527">
        <ele>4.6</ele>
        <time>2020-06-11T19:29:32Z</time>
      </trkpt>
      <trkpt lat="51.229281552573" lon="4.445436051022">
        <ele>5.8</ele>
        <time>2020-06-11T19:29:53Z</time>
      </trkpt>
      <trkpt lat="51.228888441463" lon="4.446031165922">
        <ele>12.4</ele>
        <time>2020-06-11T19:30:13Z</time>
      </trkpt>
      <trkpt lat="51.228471358119" lon="4.446622592786">
        <ele>16.8</ele>
        <time>2020-06-11T19:30:31Z</time>
      </trkpt>
      <trkpt lat="51.228476219621" lon="4.447380400365">
        <ele>8.4</ele>
        <time>2020-06-11T19:30:49Z</time>
      </trkpt>
      <trkpt lat="51.228828762335" lon="4.448049275985">
        <ele>8.2</ele>
        <time>2020-06-11T19:31:09Z</time>
      </trkpt>
      <trkpt lat="51.229030514668" lon="4.448520171127">
        <ele>8</ele>
        <time>2020-06-11T19:31:30Z</time>
      </trkpt>
      <trkpt lat="51.228899673209" lon="4.448726449686">
        <ele>5.8</ele>
        <time>2020-06-11T19:31:37Z</time>
      </trkpt>
      <trkpt lat="51.2289322788" lon="4.448630728388">
        <ele>15.4</ele>
        <time>2020-06-11T19:32:40Z</time>
      </trkpt>
      <trkpt lat="51.228903025969" lon="4.448740196002">
        <ele>14.4</ele>
        <time>2020-06-11T19:32:45Z</time>
      </trkpt>
      <trkpt lat="51.228568588159" lon="4.449216874655">
        <ele>3</ele>
        <time>2020-06-11T19:33:09Z</time>
      </trkpt>
    </trkseg>
  </trk>
</gpx>